Flight Track Log - Related Links

Times and Time Zones

All times are in EDT time to prevent confusion due to time zone crossing. See the UAL233 flight status page for this flight to view local times or setup timezone preferences in your user account.

Time Position Orientation Groundspeed Altitude Reporting Facility
EDT Latitude Longitude Course Direction KTS MPH feet Rate Location/Type
Sun 03:15:44 AM 33.9336 -118.4394 227° Southwest 177 204 1,200  Level Los Angeles Center
Sun 03:16:44 AM 33.8894 -118.4961 227° Southwest 242 278 2,600 1,636 Climbing Los Angeles Center
Sun 03:17:45 AM 33.8233 -118.5325 205° Southwest 282 325 4,500 2,231 Climbing Los Angeles Center
Sun 03:18:45 AM 33.7444 -118.5214 173° South 289 333 7,100 2,529 Climbing Los Angeles Center
Sun 03:19:46 AM 33.6803 -118.4778 151° Southeast 290 334 9,600 1,835 Climbing Los Angeles Center
Sun 03:20:46 AM 33.6558 -118.3789 107° East 310 357 10,800 1,700 Climbing Los Angeles Center
Sun 03:21:46 AM 33.6469 -118.2572 95° East 371 427 13,000 2,380 Climbing Los Angeles Center
Sun 03:22:47 AM 33.6839 -118.1403 69° East 400 460 15,600 2,678 Climbing Los Angeles Center
Sun 03:23:47 AM 33.7997 -118.0400 36° Northeast 435 501 18,400 2,430 Climbing Los Angeles Center
Sun 03:24:48 AM 33.8992 -117.9506 37° Northeast 448 516 20,500 1,686 Climbing Los Angeles Center
Sun 03:25:48 AM 34.0017 -117.8572 37° Northeast 460 529 21,800 1,041 Climbing Los Angeles Center
Sun 03:26:49 AM 34.1061 -117.7594 38° Northeast 471 542 22,600 843 Climbing Los Angeles Center
Sun 03:27:49 AM 34.1942 -117.6361 49° Northeast 483 556 23,500 1,350 Climbing Los Angeles Center
Sun 03:28:49 AM 34.2856 -117.5111 48° Northeast 494 568 25,300 1,388 Climbing Los Angeles Center
Sun 03:29:50 AM 34.3786 -117.3831 49° Northeast 502 578 26,300 793 Climbing Los Angeles Center
Sun 03:30:50 AM 34.4786 -117.2481 48° Northeast 516 594 26,900 500 Climbing Los Angeles Center
Sun 03:31:50 AM 34.5556 -117.1028 57° Northeast 516 594 27,300 446 Climbing Los Angeles Center
Sun 03:32:51 AM 34.6247 -116.9494 61° Northeast 519 597 27,800 744 Climbing Los Angeles Center
Sun 03:33:51 AM 34.6911 -116.7981 62° Northeast 514 592 28,800 893 Climbing Los Angeles Center
Sun 03:34:52 AM 34.7581 -116.6492 61° Northeast 507 583 29,600 694 Climbing Los Angeles Center
Sun 03:35:52 AM 34.8242 -116.4997 62° Northeast 505 581 30,200 650 Climbing Los Angeles Center
Sun 03:36:52 AM 34.8914 -116.3478 62° Northeast 508 585 30,900 397 Climbing Los Angeles Center
Sun 03:37:53 AM 34.9606 -116.1967 61° Northeast 511 588 31,000 50 Climbing Los Angeles Center
Sun 03:38:53 AM 35.0267 -116.0481 61° Northeast 504 580 31,000  Level Los Angeles Center
Sun 03:39:53 AM 35.0919 -115.8961 62° Northeast 505 581 31,000  Level Los Angeles Center
Sun 03:40:54 AM 35.1581 -115.7453 62° Northeast 506 582 31,000  Level Los Angeles Center
Sun 03:41:54 AM 35.2236 -115.5950 62° Northeast 504 580 31,000  Level Los Angeles Center
Sun 03:42:54 AM 35.2925 -115.4297 63° Northeast 503 579 31,000  Level Los Angeles Center
Sun 03:43:55 AM 35.3578 -115.2797 62° Northeast 502 578 31,000  Level Los Angeles Center
Sun 03:44:55 AM 35.4253 -115.1281 61° Northeast 507 583 31,000 50 Level Los Angeles Center
Sun 03:45:55 AM 35.4889 -114.9769 63° Northeast 505 581 31,100  Climbing Los Angeles Center
Sun 03:46:56 AM 35.5497 -114.8294 63° Northeast 492 566 31,000 -50 Descending Los Angeles Center
Sun 03:47:56 AM 35.6150 -114.6781 62° Northeast 497 572 31,000  Level Los Angeles Center
Sun 03:48:56 AM 35.6772 -114.5256 63° Northeast 501 577 31,000  Level Los Angeles Center
Sun 03:49:57 AM 35.7422 -114.3719 62° Northeast 505 581 31,000  Level Los Angeles Center
Sun 03:50:57 AM 35.8053 -114.2203 63° Northeast 502 578 31,000  Level Los Angeles Center
Sun 03:51:57 AM 35.8678 -114.0681 63° Northeast 500 575 31,000  Level Los Angeles Center
Sun 03:52:57 AM 35.9311 -113.9153 63° Northeast 501 577 31,000  Level Los Angeles Center
Sun 03:53:58 AM 35.9936 -113.7647 63° Northeast 496 571 31,000  Level Los Angeles Center
Sun 03:54:58 AM 36.0550 -113.6114 64° Northeast 496 571 31,000  Level Los Angeles Center
Sun 03:55:58 AM 36.1169 -113.4600 63° Northeast 496 571 31,000  Level Los Angeles Center
Sun 03:56:59 AM 36.1775 -113.3083 64° Northeast 494 568 31,000  Level Los Angeles Center
Sun 03:57:59 AM 36.2439 -113.1472 63° Northeast 494 568 31,000  Level Los Angeles Center
Sun 03:58:59 AM 36.3042 -112.9956 64° Northeast 494 568 31,000  Level Los Angeles Center
Sun 03:59:59 AM 36.3644 -112.8433 64° Northeast 494 568 31,000  Level Los Angeles Center
Sun 04:01:00 AM 36.4256 -112.6900 64° Northeast 497 572 31,000  Level Los Angeles Center
Sun 04:02:00 AM 36.4847 -112.5386 64° Northeast 493 567 31,000  Level Los Angeles Center
Sun 04:03:00 AM 36.5456 -112.3867 63° Northeast 494 568 31,000  Level Los Angeles Center
Sun 04:04:00 AM 36.6042 -112.2353 64° Northeast 491 565 31,000  Level Los Angeles Center
Sun 04:05:01 AM 36.6633 -112.0842 64° Northeast 490 564 31,000  Level Los Angeles Center
Sun 04:06:01 AM 36.7217 -111.9325 64° Northeast 488 562 31,000  Level Los Angeles Center
Sun 04:07:01 AM 36.7808 -111.7808 64° Northeast 489 563 31,000  Level Los Angeles Center
Sun 04:08:02 AM 36.8403 -111.6267 64° Northeast 494 568 31,000  Level Los Angeles Center
Sun 04:08:35 AM 36.8756 -111.5350 64° Northeast 494 568 31,000  Level Denver Center
Sun 04:09:35 AM 36.9339 -111.3817 65° Northeast 493 567 31,000  Level Denver Center
Sun 04:10:36 AM 36.9914 -111.2278 65° Northeast 491 565 31,000  Level Denver Center
Sun 04:11:36 AM 37.0503 -111.0736 64° Northeast 493 567 31,000  Level Denver Center
Sun 04:12:36 AM 37.1081 -110.9189 65° Northeast 493 567 31,000 248 Level Denver Center
Sun 04:13:37 AM 37.1658 -110.7647 65° Northeast 490 564 31,500 694 Climbing Denver Center
Sun 04:14:37 AM 37.2239 -110.6081 65° Northeast 495 570 32,400 744 Climbing Denver Center
Sun 04:15:38 AM 37.2806 -110.4561 65° Northeast 484 557 33,000 298 Climbing Denver Center
Sun 04:16:38 AM 37.3356 -110.3033 66° East 483 556 33,000  Level Denver Center
Sun 04:17:39 AM 37.3964 -110.1392 65° Northeast 489 563 33,000  Level Denver Center
Sun 04:18:39 AM 37.4589 -109.9675 65° Northeast 485 558 33,000  Level Denver Center
Sun 04:19:40 AM 37.5125 -109.8200 65° Northeast 485 558 33,000  Level Denver Center
Sun 04:20:40 AM 37.5664 -109.6700 66° East 489 563 33,000  Level Denver Center
Sun 04:21:40 AM 37.6286 -109.4967 66° East 487 560 33,000  Level Denver Center
Sun 04:22:41 AM 37.6828 -109.3461 66° East 490 564 33,000  Level Denver Center
Sun 04:23:41 AM 37.7350 -109.1986 66° East 483 556 33,000  Level Denver Center
Sun 04:24:42 AM 37.7872 -109.0489 66° East 485 558 33,000  Level Denver Center
Sun 04:25:42 AM 37.8486 -108.8753 66° East 484 557 33,000  Level Denver Center
Sun 04:26:42 AM 37.9003 -108.7275 66° East 482 555 33,000  Level Denver Center
Sun 04:27:43 AM 37.9517 -108.5764 67° East 485 558 33,000  Level Denver Center
Sun 04:28:43 AM 38.0119 -108.3983 67° East 489 563 33,000  Level Denver Center
Sun 04:29:44 AM 38.0644 -108.2497 66° East 486 559 33,000  Level Denver Center
Sun 04:30:44 AM 38.1147 -108.1006 67° East 484 557 33,000  Level Denver Center
Sun 04:31:44 AM 38.1664 -107.9494 66° East 486 559 33,000  Level Denver Center
Sun 04:32:45 AM 38.2603 -107.8008 51° Northeast 487 560 33,000  Level Denver Center
Sun 04:33:45 AM 38.3500 -107.6814 46° Northeast 489 563 33,000  Level Denver Center
Sun 04:34:46 AM 38.4361 -107.5594 48° Northeast 486 559 33,000  Level Denver Center
Sun 04:35:46 AM 38.5389 -107.4131 48° Northeast 493 567 33,000  Level Denver Center
Sun 04:36:46 AM 38.6211 -107.2861 50° Northeast 487 560 33,000  Level Denver Center
Sun 04:37:47 AM 38.6753 -107.1233 67° East 486 559 33,000  Level Denver Center
Sun 04:38:47 AM 38.7256 -106.9636 68° East 486 559 33,000  Level Denver Center
Sun 04:39:47 AM 38.7739 -106.8067 68° East 479 551 33,000  Level Denver Center
Sun 04:40:48 AM 38.8228 -106.6472 68° East 482 555 33,000  Level Denver Center
Sun 04:41:48 AM 38.8725 -106.4889 68° East 482 555 33,000  Level Denver Center
Sun 04:42:48 AM 38.9233 -106.3200 69° East 484 557 33,000  Level Denver Center
Sun 04:43:49 AM 38.9686 -106.1672 69° East 484 557 33,000  Level Denver Center
Sun 04:44:49 AM 39.0169 -106.0131 68° East 484 557 33,000  Level Denver Center
Sun 04:45:49 AM 39.0639 -105.8528 69° East 481 554 33,000  Level Denver Center
Sun 04:46:50 AM 39.1131 -105.6928 68° East 481 554 33,000  Level Denver Center
Sun 04:47:50 AM 39.1553 -105.5294 72° East 481 554 33,000  Level Denver Center
Sun 04:48:50 AM 39.1997 -105.3650 71° East 488 562 33,000  Level Denver Center
Sun 04:49:50 AM 39.2414 -105.2014 72° East 482 555 33,000  Level Denver Center
Sun 04:50:51 AM 39.2836 -105.0381 71° East 484 557 33,000  Level Denver Center
Sun 04:51:51 AM 39.3325 -104.8419 72° East 480 552 33,000  Level Denver Center
Sun 04:52:51 AM 39.3742 -104.6764 72° East 490 564 33,000  Level Denver Center
Sun 04:53:52 AM 39.4150 -104.5111 72° East 493 567 33,000  Level Denver Center
Sun 04:54:52 AM 39.4567 -104.3439 72° East 498 573 33,000  Level Denver Center
Sun 04:55:52 AM 39.4983 -104.1769 72° East 493 567 33,000  Level Denver Center
Sun 04:56:53 AM 39.5394 -104.0103 72° East 489 563 33,000  Level Denver Center
Sun 04:57:53 AM 39.5803 -103.8425 72° East 490 564 33,000  Level Denver Center
Sun 04:58:53 AM 39.6211 -103.6781 72° East 474 545 33,000  Level Denver Center
Sun 04:59:53 AM 39.6611 -103.5117 73° East 484 557 33,000  Level Denver Center
Sun 05:00:54 AM 39.7011 -103.3456 73° East 484 557 33,000  Level Denver Center
Sun 05:01:54 AM 39.7403 -103.1800 73° East 481 554 33,000  Level Denver Center
Sun 05:02:54 AM 39.7792 -103.0147 73° East 480 552 33,000  Level Denver Center
Sun 05:03:54 AM 39.8186 -102.8497 73° East 480 552 33,000  Level Denver Center
Sun 05:04:55 AM 39.8572 -102.6769 74° East 482 555 33,000  Level Denver Center
Sun 05:05:55 AM 39.8947 -102.5167 73° East 485 558 33,000  Level Denver Center
Sun 05:06:55 AM 39.9394 -102.3272 73° East 489 563 33,000 50 Level Denver Center
Sun 05:07:56 AM 39.9758 -102.1650 74° East 487 560 33,100  Climbing Denver Center
Sun 05:08:56 AM 40.0125 -102.0028 74° East 487 560 33,000 -50 Descending Denver Center
Sun 05:09:56 AM 40.0542 -101.8147 74° East 483 556 33,000  Level Denver Center
Sun 05:10:56 AM 40.0894 -101.6533 74° East 484 557 33,000  Level Denver Center
Sun 05:11:57 AM 40.1256 -101.4928 74° East 482 555 33,000  Level Denver Center
Sun 05:12:57 AM 40.1592 -101.3297 75° East 486 559 33,000  Level Denver Center
Sun 05:13:57 AM 40.2011 -101.1419 74° East 484 557 33,000  Level Denver Center
Sun 05:14:57 AM 40.2356 -100.9828 74° East 480 552 33,000  Level Denver Center
Sun 05:15:57 AM 40.2697 -100.8242 74° East 477 549 33,000  Level Denver Center
Sun 05:16:58 AM 40.3083 -100.6378 75° East 478 550 33,000  Level Denver Center
Sun 05:17:58 AM 40.3422 -100.4811 74° East 472 543 33,000  Level Denver Center
Sun 05:18:58 AM 40.3753 -100.3231 75° East 472 543 33,000  Level Denver Center
Sun 05:19:58 AM 40.4125 -100.1431 75° East 465 535 33,000  Level Denver Center
Sun 05:20:58 AM 40.4444 -99.9875 75° East 464 534 33,000  Level Denver Center
Sun 05:21:59 AM 40.4764 -99.8297 75° East 461 531 33,000  Level Denver Center
Sun 05:22:59 AM 40.5097 -99.6689 75° East 458 527 33,000  Level Denver Center
Sun 05:23:59 AM 40.5419 -99.5092 75° East 455 524 33,000  Level Denver Center
Sun 05:24:59 AM 40.5742 -99.3475 75° East 458 527 33,000  Level Denver Center
Sun 05:25:51 AM 40.5997 -99.2206 75° East 457 526 33,000  Level Minneapolis Center
Sun 05:26:52 AM 40.6306 -99.0589 76° East 457 526 33,000  Level Minneapolis Center
Sun 05:27:52 AM 40.6614 -98.8978 76° East 457 526 33,000  Level Minneapolis Center
Sun 05:28:53 AM 40.6994 -98.7025 76° East 461 531 33,000  Level Minneapolis Center
Sun 05:29:53 AM 40.7467 -98.5469 68° East 460 529 33,000  Level Minneapolis Center
Sun 05:30:53 AM 40.8044 -98.3972 63° Northeast 462 532 33,000  Level Minneapolis Center
Sun 05:31:54 AM 40.8756 -98.2611 55° Northeast 455 524 33,000  Level Minneapolis Center
Sun 05:32:54 AM 40.9475 -98.1247 55° Northeast 454 522 33,000  Level Minneapolis Center
Sun 05:33:54 AM 41.0208 -97.9908 54° Northeast 453 521 33,000  Level Minneapolis Center
Sun 05:34:55 AM 41.0931 -97.8553 55° Northeast 452 520 33,000  Level Minneapolis Center
Sun 05:35:55 AM 41.1678 -97.7203 54° Northeast 454 522 33,000  Level Minneapolis Center
Sun 05:36:55 AM 41.2436 -97.5850 53° Northeast 456 525 33,000  Level Minneapolis Center
Sun 05:37:56 AM 41.3233 -97.4556 51° Northeast 454 522 33,000  Level Minneapolis Center
Sun 05:38:56 AM 41.3842 -97.3161 60° Northeast 458 527 33,000  Level Minneapolis Center
Sun 05:39:56 AM 41.4083 -97.1478 79° East 460 529 33,000  Level Minneapolis Center
Sun 05:40:57 AM 41.4311 -96.9803 80° East 460 529 33,000  Level Minneapolis Center
Sun 05:41:57 AM 41.4525 -96.8100 80° East 463 533 33,000  Level Minneapolis Center
Sun 05:42:57 AM 41.4736 -96.6422 80° East 460 529 33,000  Level Minneapolis Center
Sun 05:43:58 AM 41.4947 -96.4725 81° East 460 529 33,000  Level Minneapolis Center
Sun 05:44:58 AM 41.5161 -96.2967 81° East 460 529 33,000  Level Minneapolis Center
Sun 05:45:58 AM 41.5358 -96.1294 81° East 458 527 33,000  Level Minneapolis Center
Sun 05:46:59 AM 41.5561 -95.9611 81° East 457 526 33,000  Level Minneapolis Center
Sun 05:47:59 AM 41.5756 -95.7953 81° East 455 524 33,000  Level Minneapolis Center
Sun 05:48:59 AM 41.5956 -95.6244 81° East 455 524 33,000  Level Minneapolis Center
Sun 05:50:00 AM 41.6153 -95.4564 81° East 456 525 33,000  Level Minneapolis Center
Sun 05:51:00 AM 41.6331 -95.2917 82° East 449 517 33,000  Level Minneapolis Center
Sun 05:52:00 AM 41.6522 -95.1269 81° East 448 516 33,000  Level Minneapolis Center
Sun 05:53:00 AM 41.6700 -94.9633 82° East 446 513 33,000 -248 Level Minneapolis Center
Sun 05:54:01 AM 41.6875 -94.7978 82° East 448 516 32,500 -722 Descending Minneapolis Center
Sun 05:55:13 AM 41.7089 -94.6031 82° East 443 510 31,400 -682 Descending Minneapolis Center
Sun 05:56:13 AM 41.7264 -94.4389 82° East 445 512 31,000 -198 Descending Minneapolis Center
Sun 05:57:14 AM 41.7436 -94.2733 82° East 448 516 31,000  Level Minneapolis Center
Sun 05:58:14 AM 41.7603 -94.1094 82° East 444 511 31,000 -50 Level Minneapolis Center
Sun 05:59:14 AM 41.7769 -93.9467 82° East 442 509 30,900  Descending Minneapolis Center
Sun 06:00:17 AM 41.7939 -93.7767 82° East 441 507 31,000 49 Climbing Minneapolis Center
Sun 06:01:17 AM 41.8106 -93.6136 82° East 443 510 31,000  Level Minneapolis Center
Sun 06:02:18 AM 41.8261 -93.4503 83° East 443 510 31,000  Level Minneapolis Center
Sun 06:03:18 AM 41.8417 -93.2886 83° East 442 509 31,000  Level Minneapolis Center
Sun 06:04:18 AM 41.8564 -93.1253 83° East 442 509 31,000  Level Minneapolis Center
Sun 06:05:19 AM 41.8631 -92.9622 87° East 442 509 31,000  Level Minneapolis Center
Sun 06:06:19 AM 41.8703 -92.7789 87° East 443 510 31,000  Level Minneapolis Center
Sun 06:07:19 AM 41.8772 -92.6158 87° East 444 511 31,000  Level Minneapolis Center
Sun 06:08:00 AM 41.8800 -92.5133 88° East 449 517 31,000  Level Chicago Center
Sun 06:09:01 AM 41.8872 -92.3514 87° East 443 510 31,000  Level Chicago Center
Sun 06:10:01 AM 41.8919 -92.1853 88° East 451 519 31,000  Level Chicago Center
Sun 06:11:01 AM 41.8981 -92.0208 87° East 449 517 31,000  Level Chicago Center
Sun 06:12:02 AM 41.9047 -91.8228 87° East 450 518 31,000  Level Chicago Center
Sun 06:13:02 AM 41.9103 -91.6567 87° East 451 519 31,000  Level Chicago Center
Sun 06:14:02 AM 41.9153 -91.4908 88° East 452 520 31,000  Level Chicago Center
Sun 06:15:03 AM 41.9194 -91.3256 88° East 451 519 31,000  Level Chicago Center
Sun 06:16:03 AM 41.9239 -91.1606 88° East 450 518 31,000  Level Chicago Center
Sun 06:17:03 AM 41.9281 -90.9958 88° East 447 514 31,000  Level Chicago Center
Sun 06:18:04 AM 41.9319 -90.8308 88° East 449 517 31,000  Level Chicago Center
Sun 06:19:04 AM 41.9358 -90.6656 88° East 449 517 31,000  Level Chicago Center
Sun 06:20:05 AM 41.9389 -90.5006 89° East 448 516 31,000  Level Chicago Center
Sun 06:21:05 AM 41.9428 -90.3342 88° East 450 518 31,000  Level Chicago Center
Sun 06:22:05 AM 41.9453 -90.1697 89° East 446 513 31,000  Level Chicago Center
Sun 06:23:06 AM 41.9486 -90.0047 88° East 446 513 31,000  Level Chicago Center
Sun 06:24:06 AM 41.9511 -89.8261 89° East 443 510 31,000  Level Chicago Center
Sun 06:25:06 AM 41.9536 -89.6592 89° East 449 517 31,000  Level Chicago Center
Sun 06:26:07 AM 41.9564 -89.4892 89° East 456 525 31,000  Level Chicago Center
Sun 06:27:07 AM 41.9583 -89.3206 89° East 453 521 31,000  Level Chicago Center
Sun 06:28:07 AM 41.9592 -89.1539 90° East 449 517 31,000  Level Chicago Center
Sun 06:29:08 AM 41.9606 -88.9853 89° East 453 521 31,000  Level Chicago Center
Sun 06:30:08 AM 41.9622 -88.8147 89° East 458 527 31,000  Level Chicago Center
Sun 06:31:08 AM 41.9636 -88.6442 89° East 458 527 31,000  Level Chicago Center
Sun 06:32:09 AM 41.9636 -88.4742 90° East 460 529 31,000  Level Chicago Center
Sun 06:33:09 AM 41.9642 -88.3050 90° East 455 524 31,000  Level Chicago Center
Sun 06:34:10 AM 41.9633 -88.1325 90° East 460 529 31,000  Level Chicago Center
Sun 06:35:10 AM 41.9636 -87.9639 90° East 455 524 31,000  Level Chicago Center
Sun 06:36:10 AM 41.9628 -87.7603 90° East 455 524 31,000  Level Chicago Center
Sun 06:37:11 AM 41.9625 -87.5900 90° East 455 524 31,000  Level Chicago Center
Sun 06:38:11 AM 41.9606 -87.4197 91° East 457 526 31,000  Level Chicago Center
Sun 06:39:12 AM 41.9606 -87.2497 90° East 455 524 31,000  Level Chicago Center
Sun 06:40:12 AM 41.9575 -87.0789 91° East 458 527 31,000  Level Chicago Center
Sun 06:41:13 AM 41.9567 -86.9092 90° East 457 526 31,000  Level Chicago Center
Sun 06:42:13 AM 41.9542 -86.7392 91° East 458 527 31,000  Level Chicago Center
Sun 06:43:13 AM 41.9522 -86.5836 91° East 460 529 31,000  Level Chicago Center
Sun 06:44:14 AM 41.9497 -86.4136 91° East 457 526 31,000  Level Chicago Center
Sun 06:45:14 AM 41.9467 -86.2425 91° East 458 527 31,000  Level Chicago Center
Sun 06:46:15 AM 41.9447 -86.0722 91° East 458 527 31,000  Level Chicago Center
Sun 06:47:15 AM 41.9408 -85.9014 92° East 458 527 31,000  Level Chicago Center
Sun 06:48:15 AM 41.9381 -85.7289 91° East 460 529 31,000  Level Chicago Center
Sun 06:49:16 AM 41.9350 -85.5567 91° East 459 528 31,000  Level Chicago Center
Sun 06:50:16 AM 41.9322 -85.3825 91° East 463 533 31,000  Level Chicago Center
Sun 06:51:17 AM 41.9283 -85.2078 92° East 465 535 31,000  Level Chicago Center
Sun 06:52:17 AM 41.9219 -85.0364 93° East 459 528 31,000  Level Chicago Center
Sun 06:53:17 AM 41.9175 -84.8653 92° East 458 527 31,000  Level Chicago Center
Sun 06:54:18 AM 41.9128 -84.6931 92° East 460 529 31,000  Level Chicago Center
Sun 06:55:18 AM 41.9067 -84.5208 93° East 460 529 31,000  Level Chicago Center
Sun 06:56:19 AM 41.9006 -84.3503 93° East 458 527 31,000  Level Chicago Center
Sun 06:57:19 AM 41.8961 -84.1803 92° East 458 527 31,000  Level Chicago Center
Sun 06:58:20 AM 41.8892 -84.0094 93° East 458 527 31,000  Level Chicago Center
Sun 06:59:20 AM 41.8836 -83.8394 92° East 457 526 31,000  Level Chicago Center
Sun 07:00:21 AM 41.8769 -83.6686 93° East 459 528 31,000  Level Chicago Center
Sun 07:01:21 AM 41.8700 -83.5003 93° East 454 522 31,000  Level Chicago Center
Sun 07:02:22 AM 41.8625 -83.3294 93° East 458 527 31,000  Level Chicago Center
Sun 07:03:36 AM 41.8508 -83.1089 94° East 460 529 31,000  Level Cleveland Center
Sun 07:04:36 AM 41.8419 -82.9383 94° East 460 529 31,000  Level Cleveland Center
Sun 07:05:36 AM 41.8350 -82.7681 93° East 460 529 31,000  Level Cleveland Center
Sun 07:06:36 AM 41.8258 -82.5783 94° East 465 535 31,000  Level Cleveland Center
Sun 07:07:36 AM 41.8183 -82.4081 93° East 465 535 31,000  Level Cleveland Center
Sun 07:08:36 AM 41.8083 -82.2350 94° East 465 535 31,000  Level Cleveland Center
Sun 07:09:36 AM 41.8044 -82.0678 92° East 460 529 31,000  Level Cleveland Center
Sun 07:10:36 AM 41.7939 -81.8950 95° East 460 529 31,000  Level Cleveland Center
Sun 07:11:36 AM 41.7853 -81.7389 94° East 460 529 31,000  Level Cleveland Center
Sun 07:12:36 AM 41.7744 -81.5686 95° East 466 536 31,000  Level Cleveland Center
Sun 07:13:36 AM 41.7653 -81.3961 94° East 466 536 31,000  Level Cleveland Center
Sun 07:14:36 AM 41.7558 -81.2233 94° East 459 528 31,000  Level Cleveland Center
Sun 07:15:36 AM 41.7444 -81.0450 95° East 469 540 31,000  Level Cleveland Center
Sun 07:16:36 AM 41.7325 -80.8558 95° East 469 540 31,000  Level Cleveland Center
Sun 07:17:36 AM 41.7203 -80.6806 95° East 469 540 31,000  Level Cleveland Center
Sun 07:18:36 AM 41.7097 -80.5081 95° East 462 532 31,000  Level Cleveland Center
Sun 07:19:36 AM 41.6969 -80.3383 96° East 469 540 31,000  Level Cleveland Center
Sun 07:20:36 AM 41.6842 -80.1633 96° East 464 534 31,000  Level Cleveland Center
Sun 07:21:36 AM 41.6728 -79.9883 95° East 464 534 31,000  Level Cleveland Center
Sun 07:22:36 AM 41.6614 -79.8161 95° East 464 534 31,000  Level Cleveland Center
Sun 07:23:36 AM 41.6519 -79.6633 95° East 464 534 31,000  Level Cleveland Center
Sun 07:24:36 AM 41.6381 -79.4914 96° East 464 534 31,000  Level Cleveland Center
Sun 07:25:36 AM 41.6236 -79.3164 96° East 464 534 31,000  Level Cleveland Center
Sun 07:26:36 AM 41.6111 -79.1417 95° East 464 534 31,000  Level Cleveland Center
Sun 07:27:36 AM 41.5983 -78.9700 96° East 464 534 31,000  Level Cleveland Center
Sun 07:28:36 AM 41.5833 -78.7953 96° East 464 534 31,000  Level Cleveland Center
Sun 07:29:36 AM 41.5681 -78.6181 97° East 464 534 31,000  Level Cleveland Center
Sun 07:30:36 AM 41.5544 -78.4411 96° East 474 545 31,000  Level Cleveland Center
Sun 07:31:36 AM 41.5406 -78.2667 96° East 474 545 31,000  Level Cleveland Center
Sun 07:32:36 AM 41.5222 -78.0925 98° East 474 545 31,000  Level Cleveland Center
Sun 07:33:06 AM 41.5144 -77.9883 96° East 469 540 31,000  Level New York Center
Sun 07:34:08 AM 41.4894 -77.8167 101° East 469 540 31,000  Level New York Center
Sun 07:35:08 AM 41.4664 -77.6397 100° East 474 545 31,000  Level New York Center
Sun 07:36:06 AM 41.4411 -77.4656 101° East 474 545 31,000  Level New York Center
Sun 07:37:06 AM 41.4150 -77.2969 102° East 469 540 31,000  Level New York Center
Sun 07:38:06 AM 41.3889 -77.1231 101° East 469 540 31,000 -400 Level New York Center
Sun 07:39:06 AM 41.3628 -76.9464 101° East 474 545 30,200 -1,488 Descending New York Center
Sun 07:40:07 AM 41.3342 -76.7750 102° East 474 545 28,000 -2,370 Descending New York Center
Sun 07:41:05 AM 41.2922 -76.6111 109° East 474 545 25,500 -2,471 Descending New York Center
Sun 07:42:06 AM 41.2461 -76.4472 110° East 469 540 23,100 -2,311 Descending New York Center
Sun 07:43:07 AM 41.2036 -76.2919 110° East 462 532 20,800 -2,479 Descending New York Center
Sun 07:44:07 AM 41.1664 -76.1456 109° East 429 494 18,100 -2,231 Descending New York Center
Sun 07:45:08 AM 41.1294 -75.9964 108° East 416 479 16,300 -1,934 Descending New York Center
Sun 07:46:08 AM 41.0950 -75.8756 111° Southeast 403 464 14,200 -1,678 Descending New York Center
Sun 07:47:06 AM 41.0592 -75.7433 110° East 389 448 13,000 -610 Descending New York Center
Sun 07:48:06 AM 41.0194 -75.5947 109° East 389 448 13,000 -893 Level New York Center
Sun 07:49:07 AM 40.9786 -75.4656 113° Southeast 379 436 11,200 -1,475 Descending New York Center
Sun 07:50:08 AM 40.9461 -75.3422 109° East 374 430 10,000 -1,091 Descending New York Center
Sun 07:51:08 AM 40.9167 -75.2361 110° East 333 383 9,000 -1,220 Descending New York Center
Sun 07:52:06 AM 40.8875 -75.1297 110° East 304 350 7,600 -1,017 Descending New York Center
Sun 07:53:06 AM 40.8594 -75.0403 113° Southeast 293 337 7,000 -298 Descending New York Center
Sun 07:54:07 AM 40.8319 -74.9369 109° East 293 337 7,000 -550 Level New York Center
Sun 07:55:06 AM 40.8464 -74.8172 81° East 281 323 5,900 -1,050 Descending New York Center
Sun 07:56:07 AM 40.8706 -74.7169 72° East 293 337 4,900 -934 Descending New York Center
Sun 07:57:08 AM 40.8969 -74.6169 71° East 293 337 4,000 -574 Descending New York Center
Sun 07:57:41 AM 40.9000 -74.5667 85° East 287 330 4,000  Level New York TRACON
Sun 07:58:41 AM 40.9000 -74.4500 90° East 284 327 4,000  Level New York TRACON
Sun 07:59:41 AM 40.9167 -74.3500 78° East 289 333 4,000  Level New York TRACON
Sun 08:00:41 AM 40.9167 -74.2500 90° East 280 322 4,000 -300 Level New York TRACON
Sun 08:01:41 AM 40.9000 -74.1667 105° East 243 280 3,400 -600 Descending New York TRACON

Login

Don't have an account? Register now (free) for customized features, flight alerts, and more!